Terminal Aerodrome Forecast
Issued by NWS Louisville, KY

Home | Current Version | Previous Version | Text Only | Print | Product List | Glossary On
Versions: 1 2 3 4 5 6 7 8 9 10 11 12 13 14
737
FTUS43 KLMK 220529
TAFSDF
TAF
KSDF 220529Z 2206/2312 06007KT P6SM SCT150 BKN250
     FM221400 08009KT P6SM BKN150
     FM230000 08011KT P6SM SCT060 BKN100 PROB30 2306/2309 5SM -SHRA
      OVC030
     FM230900 09012KT 5SM -RA BKN040=

USA.gov is the U.S. government's official web portal to all federal, state and local government web resources and services.